Time;durP1;ratioP1;P1;durP2;ratioP2;P2;SDS_P1;SDS_P2;PMS_P1;PMS_P2;Temp;Humidity;BMP_temperature;BMP_pressure;BME280_temperature;BME280_humidity;BME280_pressure;Samples;Min_cycle;Max_cycle;Signal;HPM_P1;HPM_P2
2021/08/18 00:00:07;;;;;;;62.80;29.30;;;;;;;12.80;94.98;100667.73;124866;1093;64421;-78
2021/08/18 00:02:35;;;;;;;71.17;27.23;;;;;;;12.80;95.04;100667.73;124819;1093;64240;-79
2021/08/18 00:05:03;;;;;;;72.90;28.95;;;;;;;12.76;95.14;100672.61;124926;1092;64307;-79
2021/08/18 00:07:30;;;;;;;58.67;23.67;;;;;;;12.77;95.34;100673.42;124872;1093;64284;-80
2021/08/18 00:09:58;;;;;;;59.25;25.45;;;;;;;12.76;95.47;100672.61;124860;1093;64307;-78
2021/08/18 00:12:25;;;;;;;56.77;25.57;;;;;;;12.78;95.83;100669.77;124805;1093;64342;-78
2021/08/18 00:14:52;;;;;;;55.23;20.63;;;;;;;12.79;95.64;100674.06;124837;1093;64304;-81
2021/08/18 00:17:19;;;;;;;63.27;27.00;;;;;;;12.81;95.83;100672.88;124791;1092;64766;-78
2021/08/18 00:19:47;;;;;;;59.60;19.00;;;;;;;12.82;96.25;100660.39;124825;1093;64378;-79
2021/08/18 00:22:14;;;;;;;61.33;22.47;;;;;;;12.85;96.65;100667.98;124898;1093;64383;-78
2021/08/18 00:24:41;;;;;;;55.43;19.97;;;;;;;12.88;96.42;100670.28;124833;1092;64491;-79
2021/08/18 00:27:08;;;;;;;58.53;23.90;;;;;;;12.93;96.66;100667.86;124884;1093;64287;-79
2021/08/18 00:29:40;;;;;;;70.90;25.23;;;;;;;12.96;96.45;100672.81;124933;1093;64288;-79
2021/08/18 00:32:09;;;;;;;54.10;22.43;;;;;;;13.00;96.57;100679.38;124915;1092;64211;-79
2021/08/18 00:34:36;;;;;;;58.53;21.63;;;;;;;13.04;96.61;100662.00;124970;1092;64227;-80
2021/08/18 00:37:04;;;;;;;53.23;19.67;;;;;;;13.09;96.12;100668.59;124879;1093;64389;-80
2021/08/18 00:39:31;;;;;;;51.67;21.73;;;;;;;13.14;96.41;100674.19;124956;1092;64304;-79
2021/08/18 00:41:58;;;;;;;53.43;22.00;;;;;;;13.17;95.93;100668.47;124910;1092;64258;-79
2021/08/18 00:44:27;;;;;;;50.13;20.60;;;;;;;13.20;95.71;100665.44;124832;1093;64240;-78
2021/08/18 00:46:58;;;;;;;52.47;19.43;;;;;;;13.22;96.04;100658.07;124918;1093;64281;-80
2021/08/18 00:49:26;;;;;;;70.50;21.13;;;;;;;13.22;95.99;100660.73;124762;1093;64430;-78
2021/08/18 00:51:55;;;;;;;46.80;21.60;;;;;;;13.23;96.22;100659.70;124908;1093;64296;-78
2021/08/18 00:54:23;;;;;;;44.03;18.37;;;;;;;13.23;96.29;100659.70;125044;1093;64298;-79
2021/08/18 00:56:50;;;;;;;43.83;20.83;;;;;;;13.24;96.75;100656.04;125002;1093;64323;-78
2021/08/18 00:59:18;;;;;;;42.80;18.13;;;;;;;13.24;96.48;100654.20;124857;1093;64293;-79
2021/08/18 01:01:45;;;;;;;40.83;17.73;;;;;;;13.25;96.81;100655.01;124910;1093;64275;-79
2021/08/18 01:04:13;;;;;;;41.13;16.63;;;;;;;13.24;96.58;100653.38;124910;1092;64211;-81
2021/08/18 01:06:44;;;;;;;44.63;18.63;;;;;;;13.24;97.04;100648.86;124996;1093;64339;-80
2021/08/18 01:09:15;;;;;;;50.50;19.87;;;;;;;13.25;97.35;100650.50;125001;1093;64255;-81
2021/08/18 01:11:44;;;;;;;44.57;20.20;;;;;;;13.25;97.20;100647.02;124914;1093;64288;-79
2021/08/18 01:14:13;;;;;;;50.73;18.30;;;;;;;13.26;97.14;100651.34;124959;1092;64354;-78
2021/08/18 01:16:43;;;;;;;50.43;20.73;;;;;;;13.26;97.41;100648.68;124906;1093;64257;-78
2021/08/18 01:19:13;;;;;;;54.80;21.17;;;;;;;13.27;97.45;100655.64;124901;1093;62981;-78
2021/08/18 01:21:41;;;;;;;50.10;23.07;;;;;;;13.28;97.34;100646.61;124892;1093;64326;-79
2021/08/18 01:24:11;;;;;;;55.10;21.70;;;;;;;13.28;97.44;100645.80;124935;1093;64297;-78
2021/08/18 01:26:39;;;;;;;49.10;20.90;;;;;;;13.28;97.22;100643.95;124975;1092;64304;-78
2021/08/18 01:29:07;;;;;;;51.65;20.80;;;;;;;13.29;97.23;100644.83;124879;1093;64636;-79
2021/08/18 01:31:34;;;;;;;55.15;21.85;;;;;;;13.30;97.49;100641.13;124884;1092;64330;-79
2021/08/18 01:34:03;;;;;;;51.65;20.10;;;;;;;13.29;97.27;100640.31;124901;1092;64262;-77
2021/08/18 01:36:33;;;;;;;53.53;19.93;;;;;;;13.31;97.46;100637.47;124869;1093;64250;-80
2021/08/18 01:39:05;;;;;;;53.33;20.87;;;;;;;13.33;97.28;100644.24;124877;1092;64358;-79
2021/08/18 01:41:33;;;;;;;49.97;21.57;;;;;;;13.32;97.27;100639.91;125036;1093;64428;-78
2021/08/18 01:44:01;;;;;;;44.87;14.73;;;;;;;13.33;97.36;100640.77;124864;1093;64288;-78
2021/08/18 01:46:29;;;;;;;48.23;17.03;;;;;;;13.33;97.26;100641.58;124930;1093;64387;-80
2021/08/18 01:48:57;;;;;;;47.30;16.85;;;;;;;13.33;97.13;100646.91;124857;1093;64747;-80
2021/08/18 01:51:24;;;;;;;46.47;18.40;;;;;;;13.32;97.09;100639.09;125189;1093;64342;-78
2021/08/18 01:53:51;;;;;;;47.30;20.65;;;;;;;13.29;97.12;100640.31;124947;1092;64280;-77
2021/08/18 01:56:19;;;;;;;47.30;18.20;;;;;;;13.30;96.88;100633.95;124783;1093;64856;-79
2021/08/18 01:58:49;;;;;;;52.57;22.63;;;;;;;13.30;96.82;100635.80;124924;1093;64393;-79
2021/08/18 02:01:18;;;;;;;55.33;22.37;;;;;;;13.28;97.10;100641.29;125100;1093;64201;-78
2021/08/18 02:03:49;;;;;;;47.37;18.37;;;;;;;13.26;97.19;100633.52;124943;1093;64307;-78
2021/08/18 02:06:18;;;;;;;42.60;16.80;;;;;;;13.25;97.37;100639.03;124916;1093;64288;-79
2021/08/18 02:08:45;;;;;;;48.57;16.93;;;;;;;13.23;97.78;100638.39;124948;1092;64226;-78
2021/08/18 02:11:12;;;;;;;47.17;16.40;;;;;;;13.22;97.55;100644.75;124902;1093;64326;-77
2021/08/18 02:13:39;;;;;;;50.93;18.20;;;;;;;13.19;97.76;100640.61;124909;1092;64383;-78
2021/08/18 02:16:07;;;;;;;44.07;17.87;;;;;;;13.16;97.39;100635.69;124872;1091;64403;-78
2021/08/18 02:18:34;;;;;;;49.87;17.53;;;;;;;13.16;97.62;100634.88;124917;1093;64284;-81
2021/08/18 02:21:02;;;;;;;47.70;19.50;;;;;;;13.13;97.89;100630.73;124902;1093;64346;-79
2021/08/18 02:23:29;;;;;;;41.97;16.27;;;;;;;13.14;97.84;100634.23;124901;1093;64304;-79
2021/08/18 02:25:56;;;;;;;49.45;14.80;;;;;;;13.09;98.07;100626.83;124969;1092;64378;-80
2021/08/18 02:28:24;;;;;;;57.83;23.10;;;;;;;13.06;98.43;100628.02;125357;1092;64326;-80
2021/08/18 02:30:51;;;;;;;54.50;19.10;;;;;;;13.06;98.36;100636.01;124972;1093;64287;-80
2021/08/18 02:33:20;;;;;;;52.03;17.47;;;;;;;13.06;98.32;100630.68;124893;1091;64307;-79
2021/08/18 02:35:47;;;;;;;49.07;19.23;;;;;;;13.05;98.55;100634.38;124935;1093;64207;-80
2021/08/18 02:38:14;;;;;;;61.70;22.63;;;;;;;13.06;98.69;100630.68;124851;1092;64236;-78
2021/08/18 02:40:41;;;;;;;58.07;22.07;;;;;;;13.08;98.76;100632.34;124837;1092;64443;-79
2021/08/18 02:43:08;;;;;;;59.93;22.23;;;;;;;13.10;98.79;100630.31;124871;1093;64216;-81
2021/08/18 02:45:35;;;;;;;58.63;21.83;;;;;;;13.12;98.37;100630.95;124943;1093;64259;-79
2021/08/18 02:48:03;;;;;;;53.53;21.60;;;;;;;13.13;98.46;100629.91;124842;1093;64425;-79
2021/08/18 02:50:31;;;;;;;51.97;18.90;;;;;;;13.14;98.42;100631.58;124950;1092;64304;-80
2021/08/18 02:52:59;;;;;;;62.57;22.97;;;;;;;13.14;98.48;100628.91;124878;1093;64369;-80
2021/08/18 02:55:28;;;;;;;56.83;21.07;;;;;;;13.15;98.16;100630.55;124831;1092;64288;-78
2021/08/18 02:57:56;;;;;;;54.83;21.03;;;;;;;13.17;97.98;100633.84;125094;1093;64288;-79
2021/08/18 03:00:24;;;;;;;59.15;23.15;;;;;;;13.19;98.32;100629.14;124947;1092;64240;-79
2021/08/18 03:02:51;;;;;;;50.75;20.25;;;;;;;13.19;98.08;100623.81;124926;1093;64211;-80
2021/08/18 03:05:19;;;;;;;57.37;21.03;;;;;;;13.21;98.30;100627.11;124959;1093;64444;-78
2021/08/18 03:07:46;;;;;;;55.10;20.63;;;;;;;13.21;98.23;100635.91;124841;1093;64285;-78
2021/08/18 03:10:14;;;;;;;50.83;20.53;;;;;;;13.23;98.01;100630.41;124870;1092;64261;-78
2021/08/18 03:12:41;;;;;;;50.07;20.33;;;;;;;13.24;97.75;100624.89;124841;1093;64259;-79
2021/08/18 03:15:09;;;;;;;45.30;16.50;;;;;;;13.25;97.73;100628.37;124916;1093;64291;-78
2021/08/18 03:17:36;;;;;;;43.10;17.30;;;;;;;13.26;97.85;100625.52;124781;1093;64429;-79
2021/08/18 03:20:05;;;;;;;46.17;16.57;;;;;;;13.28;97.81;100621.83;124965;1093;64211;-79
2021/08/18 03:22:32;;;;;;;46.47;16.90;;;;;;;13.29;98.08;100624.33;124905;1093;64280;-79
2021/08/18 03:24:59;;;;;;;57.23;18.57;;;;;;;13.31;97.85;100627.63;124879;1093;64335;-78
2021/08/18 03:27:26;;;;;;;41.60;17.33;;;;;;;13.32;97.95;100621.27;124903;1093;64288;-80
2021/08/18 03:29:54;;;;;;;39.87;16.43;;;;;;;13.34;98.05;100621.90;124854;1092;65151;-78
2021/08/18 03:32:21;;;;;;;42.03;15.70;;;;;;;13.34;97.58;100613.91;125024;1093;64234;-79
2021/08/18 03:34:48;;;;;;;47.10;18.17;;;;;;;13.35;98.08;100612.09;124933;1092;64288;-79
2021/08/18 03:37:15;;;;;;;43.60;17.10;;;;;;;13.34;98.28;100619.23;124929;1093;64179;-79
2021/08/18 03:39:42;;;;;;;39.80;16.90;;;;;;;13.35;97.75;100614.75;124907;1093;64291;-79
2021/08/18 03:42:09;;;;;;;47.20;15.97;;;;;;;13.34;98.10;100616.56;124891;1093;64358;-79
2021/08/18 03:44:36;;;;;;;39.87;14.60;;;;;;;13.33;97.71;100614.94;124939;1093;64191;-79
2021/08/18 03:47:03;;;;;;;38.30;14.47;;;;;;;13.32;98.19;100618.60;124974;1092;64262;-79
2021/08/18 03:49:31;;;;;;;33.57;15.00;;;;;;;13.31;98.21;100606.31;124949;1093;64310;-80
2021/08/18 03:51:58;;;;;;;35.90;14.87;;;;;;;13.29;98.28;100605.69;124858;1093;64288;-80
2021/08/18 03:54:25;;;;;;;37.43;14.90;;;;;;;13.29;98.42;100608.34;124806;1093;64464;-80
2021/08/18 03:56:52;;;;;;;35.87;13.63;;;;;;;13.28;97.97;100601.33;124917;1092;64304;-79
2021/08/18 03:59:19;;;;;;;39.93;14.23;;;;;;;13.26;98.29;100598.88;124869;1093;64400;-80
2021/08/18 04:01:46;;;;;;;36.43;14.07;;;;;;;13.25;98.52;100597.22;124898;1093;64368;-80
2021/08/18 04:04:14;;;;;;;36.40;15.10;;;;;;;13.26;98.59;100592.73;124831;1093;64297;-80
2021/08/18 04:06:41;;;;;;;37.87;15.83;;;;;;;13.25;98.71;100594.55;124869;1093;64395;-79
2021/08/18 04:09:08;;;;;;;37.20;15.30;;;;;;;13.25;98.55;100594.55;125007;1092;64282;-78
2021/08/18 04:11:36;;;;;;;43.90;15.70;;;;;;;13.26;98.93;100590.07;125028;1093;64288;-79
2021/08/18 04:14:03;;;;;;;34.70;13.53;;;;;;;13.28;98.99;100590.67;124881;1092;64301;-79
2021/08/18 04:16:30;;;;;;;38.37;14.93;;;;;;;13.30;98.71;100588.67;124879;1093;64284;-78
2021/08/18 04:18:57;;;;;;;38.23;15.67;;;;;;;13.31;98.93;100595.66;124851;1093;64465;-78
2021/08/18 04:21:24;;;;;;;30.00;12.65;;;;;;;13.32;98.70;100591.14;124897;1093;64279;-79
2021/08/18 04:23:51;;;;;;;37.23;14.83;;;;;;;13.34;98.73;100595.25;124907;1092;64358;-80
2021/08/18 04:26:18;;;;;;;35.67;10.90;;;;;;;13.36;99.02;100597.73;124847;1094;64288;-80
2021/08/18 04:28:45;;;;;;;28.97;13.27;;;;;;;13.39;98.52;100600.02;124839;1093;64349;-78
2021/08/18 04:31:13;;;;;;;35.60;12.55;;;;;;;13.41;98.53;100598.80;124866;1093;64617;-78
2021/08/18 04:33:40;;;;;;;35.03;15.17;;;;;;;13.45;98.42;100605.39;124947;1092;64304;-79
2021/08/18 04:36:07;;;;;;;36.57;13.07;;;;;;;13.46;98.13;100601.69;124895;1093;64283;-79
2021/08/18 04:38:34;;;;;;;42.35;15.85;;;;;;;13.49;98.11;100607.64;124884;1093;64288;-78
2021/08/18 04:41:01;;;;;;;40.73;15.97;;;;;;;13.52;98.18;100607.27;124872;1093;64259;-79
2021/08/18 04:43:29;;;;;;;46.13;14.97;;;;;;;13.54;97.97;100599.91;124792;1092;64268;-79
2021/08/18 04:45:56;;;;;;;37.43;14.90;;;;;;;13.55;97.62;100601.53;124881;1093;64307;-79
2021/08/18 04:48:27;;;;;;;36.13;15.03;;;;;;;13.57;97.55;100605.64;124844;1092;64303;-79
2021/08/18 04:50:54;;;;;;;45.85;19.05;;;;;;;13.57;97.19;100610.16;124799;1093;64269;-80
2021/08/18 04:53:21;;;;;;;39.57;15.97;;;;;;;13.60;97.36;100617.75;124846;1093;64352;-82
2021/08/18 04:55:49;;;;;;;36.00;13.57;;;;;;;13.60;97.20;100609.75;124829;1093;64358;-81
2021/08/18 04:58:16;;;;;;;37.73;16.70;;;;;;;13.63;97.37;100609.38;124799;1092;64380;-82
2021/08/18 05:00:43;;;;;;;45.05;15.30;;;;;;;13.66;97.20;100614.30;124908;1093;64327;-80
2021/08/18 05:03:12;;;;;;;41.00;17.47;;;;;;;13.70;96.84;100617.40;124912;1093;64368;-78
2021/08/18 05:05:40;;;;;;;42.00;17.97;;;;;;;13.74;96.65;100611.47;125313;1093;64272;-78
2021/08/18 05:08:08;;;;;;;39.20;15.83;;;;;;;13.76;96.76;100604.09;125198;1092;64394;-80
2021/08/18 05:10:36;;;;;;;34.23;16.40;;;;;;;13.79;96.80;100609.05;124868;1093;64288;-79
2021/08/18 05:13:03;;;;;;;49.97;20.23;;;;;;;13.83;96.43;100607.64;124899;1093;64765;-78
2021/08/18 05:15:31;;;;;;;42.30;15.43;;;;;;;13.86;95.95;100606.41;124917;1092;64400;-79
2021/08/18 05:17:58;;;;;;;42.93;17.77;;;;;;;13.89;96.05;100611.34;124950;1093;64594;-78
2021/08/18 05:20:25;;;;;;;43.23;18.40;;;;;;;13.92;95.63;100612.77;124883;1093;64272;-79
2021/08/18 05:22:52;;;;;;;41.43;17.50;;;;;;;13.95;95.80;100612.39;124860;1093;64384;-78
2021/08/18 05:25:20;;;;;;;57.93;20.93;;;;;;;13.96;95.69;100620.20;124851;1093;64292;-79
2021/08/18 05:27:47;;;;;;;51.57;21.13;;;;;;;13.95;95.13;100617.73;124829;1093;64374;-79
2021/08/18 05:30:16;;;;;;;53.50;19.93;;;;;;;13.95;94.89;100617.73;124895;1093;64287;-79
2021/08/18 05:32:44;;;;;;;48.90;17.20;;;;;;;13.98;94.66;100623.49;124843;1093;64936;-79
2021/08/18 05:35:14;;;;;;;52.27;20.30;;;;;;;14.00;93.98;100628.61;124837;1093;64235;-79
2021/08/18 05:37:42;;;;;;;55.50;19.35;;;;;;;14.02;93.84;100639.91;124846;1092;64304;-78
2021/08/18 05:40:09;;;;;;;61.63;17.80;;;;;;;14.01;93.51;100632.94;124921;1093;64288;-79
2021/08/18 05:42:36;;;;;;;48.70;17.53;;;;;;;14.04;93.85;100629.86;125086;1093;64335;-79
2021/08/18 05:45:05;;;;;;;49.50;20.17;;;;;;;14.06;93.15;100622.48;124899;1092;64328;-79
2021/08/18 05:47:33;;;;;;;51.60;18.45;;;;;;;14.06;92.81;100625.96;124976;1093;64302;-79
2021/08/18 05:50:00;;;;;;;55.73;20.73;;;;;;;14.09;92.52;100614.09;124977;1093;64302;-79
2021/08/18 05:52:27;;;;;;;39.47;15.73;;;;;;;14.13;92.68;100620.68;124949;1092;64285;-79
2021/08/18 05:54:55;;;;;;;52.53;19.80;;;;;;;14.20;91.91;100626.84;124898;1093;64329;-78
2021/08/18 05:57:22;;;;;;;39.40;15.87;;;;;;;14.31;91.00;100629.96;124969;1092;64358;-78
2021/08/18 05:59:49;;;;;;;51.83;17.77;;;;;;;14.39;91.05;100633.27;124881;1093;64319;-79
2021/08/18 06:02:16;;;;;;;41.33;14.70;;;;;;;14.41;89.50;100627.73;124849;1092;64319;-79
2021/08/18 06:04:44;;;;;;;52.93;16.80;;;;;;;14.44;89.51;100628.13;124931;1092;64307;-79
2021/08/18 06:07:11;;;;;;;46.03;17.20;;;;;;;14.52;89.34;100613.78;124910;1092;64296;-78
2021/08/18 06:09:38;;;;;;;52.17;16.30;;;;;;;14.54;89.25;100606.40;125070;1093;64349;-78
2021/08/18 06:12:06;;;;;;;43.20;17.00;;;;;;;14.61;89.08;100617.93;125096;1093;64301;-78
2021/08/18 06:14:33;;;;;;;35.23;15.73;;;;;;;14.68;88.79;100613.44;124934;1092;64291;-78
2021/08/18 06:17:00;;;;;;;34.67;15.30;;;;;;;14.75;88.47;100612.59;124848;1093;64310;-77
2021/08/18 06:19:27;;;;;;;34.27;16.03;;;;;;;14.89;87.96;100620.41;124781;1092;64288;-77
2021/08/18 06:21:55;;;;;;;35.10;16.63;;;;;;;14.99;85.86;100614.67;124758;1092;64435;-77
2021/08/18 06:24:41;;;;;;;35.23;16.97;;;;;;;15.08;85.90;100612.61;124762;1092;64310;-77
2021/08/18 06:27:10;;;;;;;35.27;13.93;;;;;;;15.11;85.12;100603.35;124816;1093;64878;-78
2021/08/18 06:29:38;;;;;;;34.30;16.73;;;;;;;15.12;84.90;100599.67;124858;1093;64262;-78
2021/08/18 06:32:06;;;;;;;27.87;12.87;;;;;;;15.16;84.45;100603.57;124863;1093;64348;-78
2021/08/18 06:34:33;;;;;;;39.10;12.40;;;;;;;15.18;83.64;100609.53;124931;1093;64380;-80
2021/08/18 06:37:03;;;;;;;24.27;11.50;;;;;;;15.24;83.41;100606.03;124901;1093;64278;-80
2021/08/18 06:39:39;;;;;;;25.67;11.70;;;;;;;15.32;82.46;100635.19;124878;1093;64314;-75
2021/08/18 06:42:06;;;;;;;22.70;11.25;;;;;;;15.44;82.98;100616.67;124755;1093;64381;-75
2021/08/18 06:44:33;;;;;;;21.77;11.67;;;;;;;15.50;82.27;100611.31;124746;1093;64293;-75
2021/08/18 06:47:00;;;;;;;19.60;11.53;;;;;;;15.57;82.85;100610.47;124698;1093;64301;-75
2021/08/18 06:49:27;;;;;;;27.80;11.70;;;;;;;15.65;82.25;100612.92;124707;1093;64285;-76
2021/08/18 06:51:55;;;;;;;21.63;9.90;;;;;;;15.67;81.66;100624.23;124615;1092;64307;-75
2021/08/18 06:54:22;;;;;;;21.13;11.67;;;;;;;15.66;82.21;100617.22;124653;1093;64349;-75
2021/08/18 06:56:49;;;;;;;18.73;9.67;;;;;;;15.58;81.37;100620.16;124592;1093;64387;-75
2021/08/18 06:59:16;;;;;;;18.67;10.83;;;;;;;15.60;82.29;100626.11;124642;1092;64389;-76
2021/08/18 07:01:44;;;;;;;20.57;10.90;;;;;;;15.55;81.95;100623.23;124682;1093;64242;-76
2021/08/18 07:04:12;;;;;;;17.23;9.53;;;;;;;15.57;81.80;100621.17;124787;1093;64282;-75
2021/08/18 07:06:40;;;;;;;19.10;9.90;;;;;;;15.73;82.10;100614.59;124864;1092;64776;-76
2021/08/18 07:09:07;;;;;;;20.27;9.83;;;;;;;15.94;81.49;100610.78;124590;1093;64320;-75
2021/08/18 07:11:34;;;;;;;19.97;9.60;;;;;;;16.16;79.06;100606.77;124692;1093;64304;-77
2021/08/18 07:14:03;;;;;;;14.77;9.40;;;;;;;16.43;80.03;100614.67;124683;1092;64317;-76
2021/08/18 07:16:32;;;;;;;19.67;11.27;;;;;;;16.50;77.21;100615.44;124678;1093;64261;-76
2021/08/18 07:19:01;;;;;;;16.83;9.77;;;;;;;16.58;77.66;100620.54;124753;1093;64249;-76
2021/08/18 07:21:28;;;;;;;14.70;8.10;;;;;;;16.61;77.01;100609.38;124683;1093;64317;-75
2021/08/18 07:23:56;;;;;;;16.53;9.37;;;;;;;16.67;76.25;100613.88;124720;1092;64288;-74
2021/08/18 07:26:25;;;;;;;11.50;7.33;;;;;;;16.73;76.46;100614.05;124845;1093;64400;-75
2021/08/18 07:28:53;;;;;;;11.53;8.23;;;;;;;16.78;74.69;100612.34;124614;1093;64371;-74
2021/08/18 07:31:20;;;;;;;12.90;7.40;;;;;;;16.81;75.09;100629.87;124648;1093;64304;-76
2021/08/18 07:33:47;;;;;;;11.73;5.67;;;;;;;16.79;74.32;100613.16;124716;1093;64261;-76
2021/08/18 07:36:14;;;;;;;11.50;6.55;;;;;;;16.88;75.34;100606.55;124634;1093;64444;-75
2021/08/18 07:38:41;;;;;;;12.00;6.33;;;;;;;16.93;73.45;100604.02;124705;1093;64240;-74
2021/08/18 07:41:08;;;;;;;9.43;6.17;;;;;;;16.94;73.97;100610.19;124688;1093;64314;-74
2021/08/18 07:43:35;;;;;;;10.30;6.17;;;;;;;16.99;74.87;100605.82;124708;1093;65052;-74
2021/08/18 07:46:02;;;;;;;7.70;2.83;;;;;;;16.89;72.85;100610.84;124706;1093;64275;-74
2021/08/18 07:48:31;;;;;;;12.03;6.13;;;;;;;16.88;72.50;100626.11;124627;1093;64696;-74
2021/08/18 07:50:59;;;;;;;8.35;4.90;;;;;;;16.85;72.25;100613.16;124668;1093;64317;-74
2021/08/18 07:53:26;;;;;;;9.60;4.33;;;;;;;16.82;71.45;100618.13;124675;1093;64346;-74
2021/08/18 07:55:54;;;;;;;9.60;4.63;;;;;;;16.76;71.77;100610.93;124656;1092;64304;-74
2021/08/18 07:58:22;;;;;;;8.17;4.50;;;;;;;16.75;72.32;100622.70;124688;1093;64307;-75
2021/08/18 08:00:49;;;;;;;7.37;4.30;;;;;;;16.81;72.97;100611.11;124659;1093;65079;-75
2021/08/18 08:03:16;;;;;;;8.30;4.40;;;;;;;16.80;72.21;100620.17;124687;1093;64291;-75
2021/08/18 08:05:44;;;;;;;7.97;4.57;;;;;;;16.85;72.95;100613.16;124722;1093;64307;-74
2021/08/18 08:08:11;;;;;;;5.77;2.90;;;;;;;16.84;71.99;100616.05;124706;1093;64288;-75
2021/08/18 08:10:43;;;;;;;10.67;3.13;;;;;;;16.79;72.45;100626.55;124708;1092;64294;-74
2021/08/18 08:13:10;;;;;;;8.07;4.70;;;;;;;16.90;73.02;100625.90;124699;1093;64417;-74
2021/08/18 08:15:37;;;;;;;8.20;3.40;;;;;;;16.92;71.56;100618.47;124737;1093;64301;-74
2021/08/18 08:18:04;;;;;;;7.63;4.20;;;;;;;16.96;70.73;100646.47;124687;1093;64296;-74
2021/08/18 08:20:32;;;;;;;9.70;4.55;;;;;;;17.00;71.70;100628.08;124704;1093;64261;-73
2021/08/18 08:23:01;;;;;;;6.00;3.45;;;;;;;17.04;72.23;100627.44;124698;1093;65367;-73
2021/08/18 08:25:28;;;;;;;6.87;3.67;;;;;;;17.03;71.78;100620.42;124744;1093;64348;-73
2021/08/18 08:27:56;;;;;;;7.10;4.30;;;;;;;17.11;72.54;100625.52;124696;1093;64323;-74
2021/08/18 08:30:23;;;;;;;9.63;5.53;;;;;;;17.21;73.02;100632.22;124712;1093;64245;-74
2021/08/18 08:32:50;;;;;;;7.57;5.20;;;;;;;17.41;71.63;100626.69;124686;1094;64265;-72
2021/08/18 08:35:18;;;;;;;10.17;5.00;;;;;;;17.49;69.99;100632.58;124616;1093;64276;-72
2021/08/18 08:37:45;;;;;;;6.57;4.23;;;;;;;17.39;70.64;100651.03;124665;1092;64391;-74
2021/08/18 08:40:13;;;;;;;6.30;4.27;;;;;;;17.30;70.91;100625.56;124688;1093;64303;-74
2021/08/18 08:42:41;;;;;;;5.37;2.90;;;;;;;17.16;71.14;100632.08;124610;1093;64292;-74
2021/08/18 08:45:10;;;;;;;5.87;2.90;;;;;;;17.02;71.71;100631.36;124590;1093;64282;-75
2021/08/18 08:47:38;;;;;;;6.00;3.00;;;;;;;17.04;72.75;100632.80;124822;1093;64239;-74
2021/08/18 08:50:09;;;;;;;5.53;3.57;;;;;;;17.06;72.05;100630.69;124506;1093;64877;-74
2021/08/18 08:52:36;;;;;;;4.97;2.90;;;;;;;17.12;72.01;100634.37;124585;1093;64268;-74
2021/08/18 08:55:05;;;;;;;3.97;2.60;;;;;;;17.17;71.01;100645.27;124610;1093;64287;-73
2021/08/18 08:57:51;;;;;;;8.25;2.65;;;;;;;17.19;70.08;100632.47;124911;1093;64275;-74
2021/08/18 09:00:20;;;;;;;4.73;2.80;;;;;;;17.18;70.80;100630.00;124643;1093;64301;-73
2021/08/18 09:02:48;;;;;;;6.93;2.47;;;;;;;17.15;71.31;100643.82;124738;1093;65484;-74
2021/08/18 09:05:27;;;;;;;5.47;2.50;;;;;;;17.05;72.85;100644.33;124946;1093;64304;-74
2021/08/18 09:07:58;;;;;;;5.75;3.10;;;;;;;16.93;72.96;100636.17;124664;1093;64873;-73
2021/08/18 09:10:27;;;;;;;4.47;2.20;;;;;;;16.77;74.54;100650.09;124746;1093;64207;-73
2021/08/18 09:13:18;;;;;;;6.87;2.50;;;;;;;16.59;76.15;100648.95;124853;1093;64249;-74
2021/08/18 09:16:03;;;;;;;9.17;4.33;;;;;;;16.47;76.44;100651.50;124669;1092;64310;-73
2021/08/18 09:18:40;;;;;;;;;;;;;;;16.41;77.14;100654.22;124618;1093;65237;-72
2021/08/18 09:21:29;;;;;;;5.27;2.90;;;;;;;16.38;77.63;100644.73;124714;1093;65408;-74
2021/08/18 09:24:12;;;;;;;4.23;2.57;;;;;;;16.39;77.48;100646.40;124824;1093;64297;-74
2021/08/18 09:26:41;;;;;;;7.87;2.90;;;;;;;16.52;77.73;100645.50;124637;1092;64275;-74
2021/08/18 09:29:10;;;;;;;5.35;3.20;;;;;;;16.74;76.10;100650.50;126066;1093;64376;-74
2021/08/18 09:31:36;;;;;;;5.70;3.17;;;;;;;17.07;75.89;100639.58;124625;1093;64293;-73
2021/08/18 09:34:10;;;;;;;5.10;3.03;;;;;;;17.38;72.66;100633.29;124716;1093;64307;-74
2021/08/18 09:36:37;;;;;;;5.10;2.30;;;;;;;17.53;72.79;100633.78;124860;1093;64259;-76
2021/08/18 09:39:22;;;;;;;3.67;2.43;;;;;;;17.55;71.55;100630.85;124720;1093;64240;-74
2021/08/18 09:41:50;;;;;;;;;;;;;;;17.49;71.55;100640.63;124762;1093;64343;-74
2021/08/18 09:44:19;;;;;;;5.73;2.17;;;;;;;17.43;71.89;100638.83;124695;1092;64291;-75
2021/08/18 09:46:48;;;;;;;3.77;2.17;;;;;;;17.41;71.84;100651.63;124797;1093;64215;-73
2021/08/18 09:49:15;;;;;;;4.00;1.93;;;;;;;17.44;71.55;100643.14;124747;1093;64833;-74
2021/08/18 09:51:58;;;;;;;3.93;2.07;;;;;;;17.63;70.92;100640.48;124594;1093;64287;-72
2021/08/18 09:54:36;;;;;;;3.80;2.00;;;;;;;17.75;69.60;100649.44;124752;1093;64603;-74
2021/08/18 09:57:07;;;;;;;3.40;2.10;;;;;;;17.75;68.98;100644.06;124684;1093;64380;-73
2021/08/18 09:59:37;;;;;;;3.73;2.10;;;;;;;17.79;69.45;100647.95;124745;1093;64291;-74
2021/08/18 10:02:05;;;;;;;2.70;1.63;;;;;;;17.82;68.68;100644.83;124703;1093;64239;-73
2021/08/18 10:04:33;;;;;;;5.57;2.20;;;;;;;17.95;68.64;100637.67;124805;1093;64317;-74
2021/08/18 10:07:00;;;;;;;6.23;2.37;;;;;;;18.01;68.84;100645.64;124685;1093;64416;-74
2021/08/18 10:09:28;;;;;;;4.10;2.10;;;;;;;18.06;68.78;100643.12;124690;1092;64397;-74
2021/08/18 10:11:55;;;;;;;3.17;1.73;;;;;;;18.07;68.37;100636.69;124737;1093;64207;-73
2021/08/18 10:14:22;;;;;;;7.33;2.30;;;;;;;18.17;68.81;100636.16;124734;1093;64307;-73
2021/08/18 10:16:50;;;;;;;3.10;1.63;;;;;;;18.28;67.92;100638.07;124693;1093;64291;-73
2021/08/18 10:19:19;;;;;;;4.65;1.60;;;;;;;18.35;66.94;100651.41;124746;1093;64339;-73
2021/08/18 10:21:46;;;;;;;3.13;1.80;;;;;;;18.49;66.39;100630.56;124691;1093;64336;-73
2021/08/18 10:24:35;;;;;;;4.10;1.93;;;;;;;18.74;66.19;100631.22;124682;1093;64231;-73
2021/08/18 10:27:06;;;;;;;4.10;1.60;;;;;;;18.95;64.71;100626.35;124762;1093;64262;-73
2021/08/18 10:29:38;;;;;;;4.80;2.13;;;;;;;19.05;63.63;100626.60;124601;1092;64329;-74
2021/08/18 10:32:12;;;;;;;3.20;1.77;;;;;;;19.12;64.92;100616.54;124600;1093;64439;-73
2021/08/18 10:34:51;;;;;;;2.60;1.27;;;;;;;19.13;64.61;100634.33;124669;1093;64240;-73
2021/08/18 10:37:24;;;;;;;2.70;1.70;;;;;;;19.19;64.56;100642.50;124606;1093;64276;-74
2021/08/18 10:39:54;;;;;;;3.40;1.40;;;;;;;19.27;63.74;100624.14;124656;1093;64368;-74
2021/08/18 10:42:37;;;;;;;3.17;1.43;;;;;;;19.34;63.32;100632.92;124579;1092;64207;-74
2021/08/18 10:45:22;;;;;;;2.67;1.67;;;;;;;19.43;63.27;100622.63;124608;1093;64327;-73
2021/08/18 10:47:51;;;;;;;3.20;1.40;;;;;;;19.50;64.02;100628.69;124684;1093;64307;-74
2021/08/18 10:50:23;;;;;;;2.70;1.70;;;;;;;19.64;63.09;100625.77;124846;1093;64310;-73
2021/08/18 10:52:52;;;;;;;3.27;1.70;;;;;;;19.46;62.17;100622.14;124807;1093;64288;-74
2021/08/18 10:55:23;;;;;;;2.50;1.50;;;;;;;19.37;63.72;100623.56;124708;1092;64301;-72
2021/08/18 10:57:54;;;;;;;2.60;1.40;;;;;;;19.24;64.61;100616.55;124619;1093;64357;-74
2021/08/18 11:00:32;;;;;;;3.33;1.20;;;;;;;19.09;63.74;100638.53;124687;1093;64651;-73
2021/08/18 11:03:22;;;;;;;1.80;1.17;;;;;;;18.86;65.04;100617.00;124729;1093;64208;-73
2021/08/18 11:05:52;;;;;;;2.63;1.20;;;;;;;18.61;64.06;100646.70;124779;1093;64423;-73
2021/08/18 11:08:27;;;;;;;2.10;1.17;;;;;;;18.57;65.58;100630.22;124875;1093;64301;-73
2021/08/18 11:10:57;;;;;;;1.83;1.20;;;;;;;18.70;65.14;100631.88;124737;1093;64491;-73
2021/08/18 11:13:43;;;;;;;2.13;1.13;;;;;;;18.79;66.21;100632.42;124717;1093;64298;-73